Time;durP1;ratioP1;P1;durP2;ratioP2;P2;SDS_P1;SDS_P2;PMS_P1;PMS_P2;Temp;Humidity;BMP_temperature;BMP_pressure;BME280_temperature;BME280_humidity;BME280_pressure;Samples;Min_cycle;Max_cycle;Signal;HPM_P1;HPM_P2
2024/01/18 00:00:32;;;;;;;;;0.00;0.00;;;;;2.64;100.00;98797.34;5041306;28;45344;-92
2024/01/18 00:02:57;;;;;;;;;1.00;1.00;;;;;2.50;100.00;98777.16;5059250;28;45423;-92
2024/01/18 00:05:23;;;;;;;;;0.00;0.00;;;;;2.53;100.00;98786.53;5024062;28;59565;-90
2024/01/18 00:07:48;;;;;;;;;0.00;0.00;;;;;2.50;100.00;98779.72;5024300;28;53538;-91
2024/01/18 00:10:13;;;;;;;;;0.00;0.00;;;;;2.56;100.00;98793.28;5024687;28;45261;-91
2024/01/18 00:12:39;;;;;;;;;0.00;0.00;;;;;2.46;100.00;98772.16;5041571;28;45250;-91
2024/01/18 00:15:05;;;;;;;;;0.00;0.00;;;;;2.58;100.00;98797.53;5040851;28;45427;-92
2024/01/18 00:17:31;;;;;;;;;0.00;0.00;;;;;2.47;100.00;98789.25;5041174;28;45333;-92
2024/01/18 00:19:56;;;;;;;;;0.00;0.00;;;;;2.50;100.00;98825.13;5041148;28;45349;-93
2024/01/18 00:22:22;;;;;;;;;0.00;0.00;;;;;2.44;100.00;98818.41;5024835;28;45316;-92
2024/01/18 00:24:47;;;;;;;;;0.00;0.00;;;;;2.43;100.00;98829.56;5041091;28;45432;-92
2024/01/18 00:27:12;;;;;;;;;0.00;0.00;;;;;2.46;100.00;98836.38;5041018;28;45418;-93
2024/01/18 00:29:38;;;;;;;;;0.00;0.00;;;;;2.44;100.00;98831.25;5058932;28;45254;-93
2024/01/18 00:32:04;;;;;;;;;0.00;0.00;;;;;2.45;100.00;98824.41;5041365;28;45503;-94
2024/01/18 00:34:29;;;;;;;;;0.00;0.00;;;;;2.37;100.00;98800.66;5041124;28;45978;-93
2024/01/18 00:36:54;;;;;;;;;0.00;0.00;;;;;2.48;100.00;98811.47;5024014;28;51553;-94
2024/01/18 00:39:21;;;;;;;;;0.00;0.00;;;;;2.41;100.00;98805.66;5024739;28;45302;-94
2024/01/18 00:41:47;;;;;;;;;0.00;0.00;;;;;2.37;100.00;98806.63;5058188;28;45461;-94
2024/01/18 00:44:12;;;;;;;;;0.00;0.00;;;;;2.37;100.00;98804.06;5023723;28;48364;-93
2024/01/18 00:46:37;;;;;;;;;0.00;0.00;;;;;2.30;100.00;98808.53;5024267;28;45352;-93
2024/01/18 00:49:04;;;;;;;;;0.00;0.00;;;;;2.32;100.00;98829.00;5066112;28;45218;-93
2024/01/18 00:51:30;;;;;;;;;0.00;0.00;;;;;2.31;100.00;98823.03;5061324;28;45370;-93
2024/01/18 00:53:55;;;;;;;;;0.00;0.00;;;;;2.30;100.00;98823.94;5060833;28;47284;-93
2024/01/18 00:56:20;;;;;;;;;0.00;0.00;;;;;2.26;100.00;98813.78;5060925;28;45229;-93
2024/01/18 00:58:46;;;;;;;;;0.00;0.00;;;;;2.31;100.00;98819.63;5060363;28;65205;-92
2024/01/18 01:01:13;;;;;;;;;0.00;0.00;;;;;2.32;100.00;98821.31;5061076;28;45344;-92
2024/01/18 01:03:38;;;;;;;;;0.00;0.00;;;;;2.35;100.00;98822.97;5060983;28;45479;-92
2024/01/18 01:06:04;;;;;;;;;0.00;0.00;;;;;2.25;100.00;98818.06;5060670;28;45418;-91
2024/01/18 01:08:29;;;;;;;;;0.00;0.00;;;;;2.32;100.00;98822.16;5044069;28;45290;-91
2024/01/18 01:10:54;;;;;;;;;0.00;0.00;;;;;2.31;100.00;98811.94;5060562;28;51132;-92
2024/01/18 01:13:20;;;;;;;;;0.00;0.00;;;;;2.24;100.00;98808.66;5043507;27;50104;-92
2024/01/18 01:15:46;;;;;;;;;0.00;0.00;;;;;2.27;100.00;98813.72;5060518;28;45278;-92
2024/01/18 01:18:11;;;;;;;;;0.00;0.00;;;;;2.21;100.00;98810.47;5060424;28;45375;-92
2024/01/18 01:20:37;;;;;;;;;0.00;0.00;;;;;2.10;100.00;98796.19;5060517;28;45392;-92
2024/01/18 01:23:03;;;;;;;;;0.00;0.00;;;;;2.02;100.00;98795.53;5078005;28;45424;-93
2024/01/18 01:25:28;;;;;;;;;0.00;0.00;;;;;2.12;100.00;98811.56;5043488;28;45854;-93
2024/01/18 01:27:54;;;;;;;;;0.00;0.00;;;;;2.07;100.00;98803.13;5059858;28;45265;-92
2024/01/18 01:30:19;;;;;;;;;12.00;12.00;;;;;2.01;100.00;98801.56;5060380;28;45257;-93
2024/01/18 01:32:44;;;;;;;;;0.00;0.00;;;;;2.07;100.00;98816.81;5043475;28;47839;-93
2024/01/18 01:35:11;;;;;;;;;0.00;0.00;;;;;2.11;100.00;98828.66;5079088;27;60596;-93
2024/01/18 01:37:36;;;;;;;;;0.00;0.00;;;;;1.94;100.00;98803.44;5080740;27;45271;-92
2024/01/18 01:40:01;;;;;;;;;0.00;0.00;;;;;2.05;100.00;98822.88;5080626;27;45333;-92
2024/01/18 01:42:27;;;;;;;;;0.00;0.00;;;;;2.05;100.00;98825.44;5080285;27;46864;-93
2024/01/18 01:44:54;;;;;;;;;0.00;0.00;;;;;2.02;100.00;98817.78;5098465;27;52670;-93
2024/01/18 01:47:19;;;;;;;;;0.00;0.00;;;;;2.07;100.00;98818.53;5091640;27;45503;-92
2024/01/18 01:49:45;;;;;;;;;0.00;0.00;;;;;1.97;100.00;98825.63;5087305;27;45473;-93
2024/01/18 01:52:11;;;;;;;;;1.00;1.00;;;;;2.02;100.00;98834.03;5079480;27;56705;-93
2024/01/18 01:54:36;;;;;;;;;0.00;0.00;;;;;2.04;100.00;98842.53;5062182;27;52692;-93
2024/01/18 01:57:06;;;;;;;;;0.00;0.00;;;;;2.03;100.00;98847.72;5079703;27;46826;-93
2024/01/18 01:59:32;;;;;;;;;0.00;0.00;;;;;2.01;100.00;98852.06;5080142;27;45355;-93
2024/01/18 02:02:06;;;;;;;;;0.00;0.00;;;;;1.98;100.00;98847.81;5080219;27;45564;-93
2024/01/18 02:04:31;;;;;;;;;9.00;9.00;;;;;1.93;100.00;98840.25;5079674;27;56199;-92
2024/01/18 02:07:00;;;;;;;;;0.00;0.00;;;;;1.97;100.00;98835.03;5080304;27;45311;-92
2024/01/18 02:09:26;;;;;;;;;0.25;0.00;;;;;1.93;100.00;98845.38;5080696;27;45524;-93
2024/01/18 02:11:52;;;;;;;;;0.00;0.00;;;;;1.95;100.00;98853.06;5097638;27;45456;-92
2024/01/18 02:14:18;;;;;;;;;0.00;0.00;;;;;1.90;100.00;98842.88;5080152;27;45442;-93
2024/01/18 02:16:43;;;;;;;;;0.00;0.00;;;;;1.97;100.00;98860.69;5080237;27;45334;-93
2024/01/18 02:19:08;;;;;;;;;0.00;0.00;;;;;1.91;100.00;98846.28;5080344;27;45218;-93
2024/01/18 02:21:34;;;;;;;;;0.00;0.00;;;;;2.01;100.00;98862.31;5079678;27;64691;-93
2024/01/18 02:24:05;;;;;;;;;0.00;0.00;;;;;1.93;100.00;98854.78;5080218;27;45280;-94
2024/01/18 02:26:30;;;;;;;;;0.00;0.00;;;;;1.91;100.00;98853.97;5080017;27;45376;-95
2024/01/18 02:28:57;;;;;;;;;0.00;0.00;;;;;1.78;100.00;98832.91;5062571;27;61933;-96
2024/01/18 02:31:22;;;;;;;;;0.75;0.75;;;;;1.74;100.00;98844.94;5080438;27;45401;-95
2024/01/18 02:33:49;;;;;;;;;0.00;0.00;;;;;1.71;100.00;98833.94;5080191;27;45162;-96
2024/01/18 02:36:15;;;;;;;;;0.00;0.00;;;;;1.87;100.00;98867.75;5080373;27;45232;-94
2024/01/18 02:38:41;;;;;;;;;0.00;0.00;;;;;1.84;100.00;98873.81;5079900;27;45509;-94
2024/01/18 02:41:06;;;;;;;;;0.00;0.00;;;;;1.74;100.00;98862.91;5079416;27;47370;-94
2024/01/18 02:43:41;;;;;;;;;0.00;0.00;;;;;1.65;100.00;98852.84;5079797;27;45321;-95
2024/01/18 02:46:07;;;;;;;;;1.00;1.00;;;;;1.79;100.00;98877.38;5099133;27;45201;-95
2024/01/18 02:48:32;;;;;;;;;1.00;1.00;;;;;1.73;100.00;98870.66;5118740;27;45244;-95
2024/01/18 02:51:10;;;;;;;;;0.00;0.00;;;;;1.79;100.00;98880.78;5100161;27;46701;-95
2024/01/18 02:53:45;;;;;;;;;;;;;;;;;;;;;
2024/01/18 02:56:11;;;;;;;;;0.00;0.00;;;;;1.65;100.00;98857.16;5101119;27;69217;-96
2024/01/18 03:02:29;;;;;;;;;;;;;;;;;;;;;
2024/01/18 03:05:32;;;;;;;;;0.00;0.00;;;;;1.77;100.00;98884.25;5107650;27;73199;-95
2024/01/18 03:08:50;;;;;;;;;;;;;;;;;;;;;
2024/01/18 03:11:55;;;;;;;;;;;;;;;;;;;;;
2024/01/18 03:14:41;;;;;;;;;;;;;;;;;;;;;
2024/01/18 03:17:51;;;;;;;;;;;;;;;;;;;;;
2024/01/18 04:07:42;;;;;;;;;0.00;0.00;;;;;1.65;100.00;98960.59;4951566;28;44763;-88
2024/01/18 04:10:09;;;;;;;;;0.00;0.00;;;;;1.58;100.00;98963.31;4970066;28;44843;-88
2024/01/18 04:12:34;;;;;;;;;0.00;0.00;;;;;1.54;100.00;98960.84;4954171;28;45630;-88
2024/01/18 04:56:37;;;;;;;;;0.00;0.00;;;;;1.28;100.00;99114.28;5776343;23;46372;31
2024/01/18 04:59:10;;;;;;;;;0.00;0.00;;;;;1.11;100.00;99096.63;4930312;28;46931;-96
2024/01/18 05:01:39;;;;;;;;;0.00;0.00;;;;;1.10;100.00;99097.53;4925974;28;44807;-96
2024/01/18 05:04:07;;;;;;;;;0.00;0.00;;;;;1.11;100.00;99105.16;4929534;28;44702;-96
2024/01/18 05:06:32;;;;;;;;;0.00;0.00;;;;;1.13;100.00;99120.53;4928313;28;44954;-96
2024/01/18 05:19:19;;;;;;;;;1.25;1.25;;;;;1.15;100.00;99149.53;5502117;23;45980;-96
2024/01/18 05:21:44;;;;;;;;;0.00;0.00;;;;;1.11;100.00;99148.72;4996272;28;45364;-96
2024/01/18 05:24:10;;;;;;;;;0.75;0.75;;;;;1.26;100.00;99177.56;4978616;28;44654;-96
2024/01/18 05:26:36;;;;;;;;;0.00;0.00;;;;;1.11;100.00;99170.97;5016917;28;44842;-96
2024/01/18 05:29:02;;;;;;;;;0.00;0.00;;;;;1.10;100.00;99167.56;4994201;28;45732;-96
2024/01/18 05:31:27;;;;;;;;;0.00;0.00;;;;;1.18;100.00;99189.66;4995212;28;44699;-96
2024/01/18 05:33:56;;;;;;;;;1.00;0.50;;;;;1.26;100.00;99198.91;5011316;28;44657;-96
2024/01/18 05:36:21;;;;;;;;;0.00;0.00;;;;;1.25;100.00;99199.78;4992228;28;44834;-96
2024/01/18 05:38:49;;;;;;;;;0.00;0.00;;;;;1.25;100.00;99199.78;5008049;28;45491;-96
2024/01/18 05:41:17;;;;;;;;;0.50;0.50;;;;;1.15;100.00;99198.22;4996547;28;44687;-96
2024/01/18 05:43:42;;;;;;;;;0.75;0.00;;;;;1.13;100.00;99200.84;5002603;28;44705;-96
2024/01/18 05:46:08;;;;;;;;;0.00;0.00;;;;;1.14;100.00;99206.81;5001651;28;44906;-96
2024/01/18 05:51:09;;;;;;;;;0.00;0.00;;;;;1.14;100.00;99212.78;5663241;23;46577;-96
2024/01/18 05:53:36;;;;;;;;;9.00;9.00;;;;;1.13;100.00;99208.53;4936648;28;44770;-96
2024/01/18 05:56:01;;;;;;;;;0.00;0.00;;;;;1.19;100.00;99222.09;4981704;28;44795;-96
2024/01/18 05:58:31;;;;;;;;;0.00;0.00;;;;;1.33;100.00;99246.66;4948463;28;45400;-96
2024/01/18 06:00:56;;;;;;;;;0.00;0.00;;;;;1.22;100.00;99230.59;4947112;28;44761;-96
2024/01/18 06:03:22;;;;;;;;;9.00;9.00;;;;;1.27;100.00;99233.94;4928205;28;45274;-96
2024/01/18 06:05:48;;;;;;;;;0.00;0.00;;;;;1.34;100.00;99242.41;4962391;28;44915;-95
2024/01/18 06:08:14;;;;;;;;;0.00;0.00;;;;;1.32;100.00;99239.84;4927105;28;46854;-96
2024/01/18 06:10:41;;;;;;;;;0.00;0.00;;;;;1.43;100.00;99267.91;4975191;28;44756;-96
2024/01/18 06:13:07;;;;;;;;;0.00;0.00;;;;;1.36;100.00;99263.72;4943809;28;44686;-96
2024/01/18 06:15:32;;;;;;;;;0.00;0.00;;;;;1.39;100.00;99268.78;4958958;28;44797;-96
2024/01/18 06:18:03;;;;;;;;;0.00;0.00;;;;;1.41;100.00;99274.78;4957976;28;45116;-95
2024/01/18 06:20:29;;;;;;;;;0.00;0.00;;;;;1.48;100.00;99285.75;4959010;28;44773;-94
2024/01/18 06:22:54;;;;;;;;;0.00;0.00;;;;;1.61;100.00;99312.06;4945455;28;45317;-95
2024/01/18 06:25:19;;;;;;;;;0.00;0.00;;;;;1.50;100.00;99330.19;4961705;28;45316;-93
2024/01/18 06:27:47;;;;;;;;;0.00;0.00;;;;;1.48;100.00;99322.50;4962655;28;45182;-96
2024/01/18 06:30:13;;;;;;;;;0.00;0.00;;;;;1.40;100.00;99315.81;4978550;28;45300;-96
2024/01/18 06:32:40;;;;;;;;;0.00;0.00;;;;;1.46;100.00;99328.53;4976771;28;45304;-84
2024/01/18 06:35:23;;;;;;;;;0.00;0.00;;;;;1.55;100.00;99354.88;4923067;28;67451;-85
2024/01/18 06:37:48;;;;;;;;;0.00;0.00;;;;;1.56;100.00;99358.31;4972650;28;46055;-87
2024/01/18 06:40:17;;;;;;;;;1.00;1.00;;;;;1.57;100.00;99370.25;4941446;28;70783;-89
2024/01/18 06:42:43;;;;;;;;;0.25;0.25;;;;;1.51;100.00;99384.00;4944112;28;45317;-87
2024/01/18 06:45:09;;;;;;;;;0.00;0.00;;;;;1.61;100.00;99404.41;4943792;28;48224;-91
2024/01/18 06:47:35;;;;;;;;;3.50;3.50;;;;;1.52;100.00;99406.25;4928103;28;47406;-92
2024/01/18 06:50:00;;;;;;;;;0.00;0.00;;;;;1.53;100.00;99425.88;4961000;28;45455;-83
2024/01/18 06:52:26;;;;;;;;;0.00;0.00;;;;;1.61;100.00;99435.19;4943330;28;45313;-84
2024/01/18 06:54:51;;;;;;;;;0.00;0.00;;;;;1.55;100.00;99428.44;4943710;28;45372;-84
2024/01/18 06:57:17;;;;;;;;;0.00;0.00;;;;;1.54;100.00;99440.41;4926019;28;72867;-83
2024/01/18 06:59:45;;;;;;;;;0.00;0.00;;;;;1.56;100.00;99450.66;4960092;28;45241;-82
2024/01/18 07:02:10;;;;;;;;;0.75;0.75;;;;;1.54;100.00;99462.63;4959635;28;46000;-82
2024/01/18 07:04:36;;;;;;;;;0.00;0.00;;;;;1.49;100.00;99455.00;4959874;28;50993;-84
2024/01/18 07:07:01;;;;;;;;;0.00;0.00;;;;;1.45;100.00;99455.03;4925872;28;74224;-85
2024/01/18 07:09:26;;;;;;;;;0.00;0.00;;;;;1.42;100.00;99457.66;4942641;28;67125;-82
2024/01/18 07:11:55;;;;;;;;;0.00;0.00;;;;;1.39;100.00;99455.97;4959745;28;63778;-88
2024/01/18 07:14:21;;;;;;;;;1.00;1.00;;;;;1.39;100.00;99460.25;4925309;28;68415;-85
2024/01/18 07:16:46;;;;;;;;;0.00;0.00;;;;;1.42;100.00;99473.88;4942252;28;47161;-85
2024/01/18 07:19:12;;;;;;;;;0.00;0.00;;;;;1.41;100.00;99490.16;4926493;28;46214;-86
2024/01/18 07:21:37;;;;;;;;;0.00;0.00;;;;;1.45;100.00;99506.31;4942850;28;45381;-85
2024/01/18 07:24:03;;;;;;;;;3.00;3.00;;;;;1.40;100.00;99514.09;4925982;28;69247;-85
2024/01/18 07:26:28;;;;;;;;;0.00;0.00;;;;;1.43;100.00;99524.31;4926670;28;48307;-85
2024/01/18 07:28:53;;;;;;;;;1.00;1.00;;;;;1.36;100.00;99517.56;4942138;28;59147;-85
2024/01/18 07:31:18;;;;;;;;;0.00;0.00;;;;;1.40;100.00;99537.16;4959033;28;64112;-85
2024/01/18 07:33:44;;;;;;;;;0.00;0.00;;;;;1.40;100.00;99541.44;4942115;28;64868;-86
2024/01/18 07:36:09;;;;;;;;;0.00;0.00;;;;;1.38;100.00;99541.47;4942083;28;69074;-85
2024/01/18 07:38:34;;;;;;;;;3.00;1.00;;;;;1.35;100.00;99544.91;4942345;28;59746;-86
2024/01/18 07:41:00;;;;;;;;;0.00;0.00;;;;;1.28;100.00;99550.97;4941898;28;65257;-86
2024/01/18 07:43:25;;;;;;;;;0.00;0.00;;;;;1.26;100.00;99564.66;4926191;28;66062;-86
2024/01/18 07:45:50;;;;;;;;;1.00;1.00;;;;;1.21;100.00;99574.09;4925757;28;48735;-86
2024/01/18 07:48:16;;;;;;;;;0.00;0.00;;;;;1.18;100.00;99571.59;4926247;28;45451;-86
2024/01/18 07:50:41;;;;;;;;;3.00;3.00;;;;;1.17;100.00;99596.38;4926692;28;45407;-86
2024/01/18 07:53:07;;;;;;;;;0.00;0.00;;;;;1.13;100.00;99598.09;4959862;28;45513;-86
2024/01/18 07:55:32;;;;;;;;;0.00;0.00;;;;;1.06;100.00;99595.59;4940647;28;46876;-86
2024/01/18 07:57:58;;;;;;;;;0.00;0.00;;;;;1.03;100.00;99590.50;4959702;28;45347;-85
2024/01/18 08:00:24;;;;;;;;;0.00;0.00;;;;;1.00;100.00;99599.06;4953971;28;70500;-86
2024/01/18 08:02:50;;;;;;;;;0.00;0.00;;;;;0.94;100.00;99599.94;4948014;28;45375;-86
2024/01/18 08:05:15;;;;;;;;;0.00;0.00;;;;;1.00;100.00;99622.13;4941863;28;47237;-82
2024/01/18 08:07:41;;;;;;;;;0.00;0.00;;;;;0.99;100.00;99633.25;4958555;28;58699;-87
2024/01/18 08:10:08;;;;;;;;;0.00;0.00;;;;;0.99;100.00;99640.09;4922612;28;55721;-84
2024/01/18 08:12:33;;;;;;;;;0.00;0.00;;;;;0.93;100.00;99639.28;4941058;28;45361;-86
2024/01/18 08:14:59;;;;;;;;;4.00;4.00;;;;;0.96;100.00;99659.72;4956188;28;64078;-86
2024/01/18 08:17:24;;;;;;;;;3.00;3.00;;;;;0.92;100.00;99652.94;4924679;28;45637;-86
2024/01/18 08:19:50;;;;;;;;;0.00;0.00;;;;;0.99;100.00;99668.28;4960655;28;61119;-86
2024/01/18 08:22:15;;;;;;;;;0.00;0.00;;;;;1.02;100.00;99678.50;4953979;28;45915;-87
2024/01/18 08:24:41;;;;;;;;;0.00;0.00;;;;;1.00;100.00;99686.19;4930020;28;73681;-85
2024/01/18 08:27:07;;;;;;;;;0.00;0.00;;;;;1.00;100.00;99690.47;4959098;28;45493;-87
2024/01/18 08:29:32;;;;;;;;;0.00;0.00;;;;;1.09;100.00;99703.22;4942018;28;45463;-86
2024/01/18 08:31:58;;;;;;;;;0.00;0.00;;;;;1.03;100.00;99685.31;4942482;28;45513;-88
2024/01/18 08:34:23;;;;;;;;;0.00;0.00;;;;;1.03;100.00;99688.72;4971877;28;47089;-86
2024/01/18 08:36:49;;;;;;;;;1.00;1.00;;;;;1.12;100.00;99711.75;4925376;28;45686;-88
2024/01/18 08:39:15;;;;;;;;;0.00;0.00;;;;;1.02;100.00;99704.13;4954236;28;45560;-83
2024/01/18 08:41:43;;;;;;;;;1.00;1.00;;;;;1.06;100.00;99727.16;4925026;28;45292;-84
2024/01/18 08:44:09;;;;;;;;;0.50;0.50;;;;;1.07;100.00;99733.13;4953260;28;46141;-85
2024/01/18 08:46:34;;;;;;;;;0.50;0.00;;;;;1.13;100.00;99744.22;4954012;28;45328;-84
2024/01/18 08:49:00;;;;;;;;;1.00;1.00;;;;;1.08;100.00;99748.50;4928216;28;45751;-84
2024/01/18 08:51:25;;;;;;;;;0.00;0.00;;;;;1.10;100.00;99759.59;4939756;28;51118;-83
2024/01/18 08:53:51;;;;;;;;;3.00;3.00;;;;;1.15;100.00;99777.50;4940215;28;47848;-84
2024/01/18 08:56:21;;;;;;;;;0.00;0.00;;;;;1.18;100.00;99785.19;4957989;28;45413;-86
2024/01/18 08:59:00;;;;;;;;;0.00;0.00;;;;;1.16;100.00;99794.59;4961294;28;45378;-87
2024/01/18 09:01:31;;;;;;;;;0.00;0.00;;;;;1.07;100.00;99769.03;4953826;28;45640;-87
2024/01/18 09:04:04;;;;;;;;;0.00;0.00;;;;;1.12;100.00;99780.94;4938971;28;47231;-86
2024/01/18 09:06:29;;;;;;;;;0.00;0.00;;;;;1.24;100.00;99799.69;4926043;28;45482;-87
2024/01/18 09:08:55;;;;;;;;;0.00;0.00;;;;;1.28;100.00;99809.03;4942823;28;45415;-87
2024/01/18 09:11:22;;;;;;;;;0.00;0.00;;;;;1.29;100.00;99814.16;4935412;28;45427;-87
2024/01/18 09:13:47;;;;;;;;;0.00;0.00;;;;;1.43;100.00;99831.19;4925213;28;47163;-88
2024/01/18 09:16:18;;;;;;;;;0.50;0.50;;;;;1.56;100.00;99850.78;4957116;28;45332;-88
2024/01/18 09:18:44;;;;;;;;;0.00;0.00;;;;;1.68;100.00;99852.41;4957617;28;45459;-88
2024/01/18 09:21:09;;;;;;;;;0.00;0.00;;;;;1.75;100.00;99841.25;4941381;28;45480;-88
2024/01/18 09:23:36;;;;;;;;;1.00;1.00;;;;;1.96;100.00;99867.59;4925071;28;46803;-88
2024/01/18 09:26:01;;;;;;;;;0.00;0.00;;;;;2.09;100.00;99872.63;4940956;28;45308;-88
2024/01/18 09:32:23;;;;;;;;;0.00;0.00;;;;;2.28;100.00;99869.91;4883917;29;45407;-90
2024/01/18 09:34:48;;;;;;;;;1.00;0.25;;;;;2.37;100.00;99871.53;4887096;29;45715;-86
2024/01/18 09:37:14;;;;;;;;;1.00;1.00;;;;;2.45;100.00;99880.88;4906661;28;45238;-87
2024/01/18 09:39:40;;;;;;;;;0.00;0.00;;;;;2.52;100.00;99897.06;4896072;29;45412;-87
2024/01/18 09:42:14;;;;;;;;;2.25;2.00;;;;;2.48;100.00;99905.69;4883306;29;45380;-88
2024/01/18 09:44:45;;;;;;;;;0.00;0.00;;;;;2.41;100.00;99904.88;4899496;29;46353;-87
2024/01/18 09:50:28;;;;;;;;;0.00;0.00;;;;;2.45;100.00;99926.25;4897063;28;45449;-88
2024/01/18 09:53:03;;;;;;;;;4.25;4.25;;;;;2.44;100.00;99922.84;4884097;29;45402;-89
2024/01/18 09:55:29;;;;;;;;;0.00;0.00;;;;;2.49;100.00;99926.22;4883154;29;46410;-86
2024/01/18 09:57:56;;;;;;;;;0.00;0.00;;;;;2.64;100.00;99945.78;4867758;29;46104;-88
2024/01/18 10:00:24;;;;;;;;;0.00;0.00;;;;;2.67;100.00;99955.19;4898364;29;45222;-85
2024/01/18 10:02:59;;;;;;;;;0.00;0.00;;;;;2.67;100.00;99955.19;4898926;29;45507;-87
2024/01/18 10:05:46;;;;;;;;;0.00;0.00;;;;;2.83;100.00;99984.16;4885866;28;46570;-92
2024/01/18 10:11:24;;;;;;;;;2.25;2.25;;;;;2.81;100.00;99989.31;4941260;28;45462;-82
2024/01/18 10:17:12;;;;;;;;;1.00;1.00;;;;;3.10;100.00;100025.03;4950774;28;46362;-90
2024/01/18 10:20:12;;;;;;;;;0.75;0.75;;;;;3.13;100.00;100015.59;4961317;28;45461;-87
2024/01/18 10:22:38;;;;;;;;;0.00;0.00;;;;;3.29;100.00;100027.44;4968797;28;45263;-88
2024/01/18 10:25:52;;;;;;;;;3.50;0.50;;;;;3.40;100.00;100040.16;4928514;28;45365;-90
2024/01/18 10:28:33;;;;;;;;;;;;;;;;;;;;;
2024/01/18 10:34:39;;;;;;;;;4.00;4.00;;;;;3.55;100.00;100052.88;4911894;28;45633;-89
2024/01/18 10:37:21;;;;;;;;;0.00;0.00;;;;;3.70;100.00;100077.59;4855487;29;45542;-88
2024/01/18 10:40:21;;;;;;;;;4.00;0.50;;;;;3.59;100.00;100066.56;4829914;29;47507;-89
2024/01/18 10:43:07;;;;;;;;;0.75;0.00;;;;;3.72;100.00;100080.16;4860632;29;45501;-89
2024/01/18 10:45:46;;;;;;;;;1.00;1.00;;;;;3.75;100.00;100070.69;4831130;29;45439;-89
2024/01/18 10:49:15;;;;;;;;;0.00;0.00;;;;;3.89;100.00;100083.38;4843275;29;45356;-88
2024/01/18 10:51:52;;;;;;;;;3.50;3.00;;;;;4.00;100.00;100093.53;4848017;29;48195;-90
2024/01/18 10:54:58;;;;;;;;;1.00;1.00;;;;;4.08;100.00;100100.28;4862959;29;45581;-89
2024/01/18 10:57:23;;;;;;;;;0.00;0.00;;;;;4.15;100.00;100095.91;4860769;29;45642;-91
2024/01/18 10:59:51;;;;;;;;;0.00;0.00;;;;;4.24;100.00;100102.69;4839775;29;62399;-89
2024/01/18 11:02:17;;;;;;;;;1.50;1.00;;;;;4.36;100.00;100114.53;4848366;29;46252;-89
2024/01/18 11:05:00;;;;;;;;;0.25;0.25;;;;;4.45;100.00;100098.97;4847835;29;45527;-89
2024/01/18 11:07:25;;;;;;;;;3.00;3.00;;;;;4.68;100.00;100115.81;4863828;29;45388;-89
2024/01/18 11:09:55;;;;;;;;;0.50;0.50;;;;;4.77;100.00;100101.09;4861577;29;45460;-91
2024/01/18 11:12:29;;;;;;;;;0.00;0.00;;;;;5.15;100.00;100119.41;4880296;29;45347;-89
2024/01/18 11:14:55;;;;;;;;;0.00;0.00;;;;;5.56;100.00;100129.00;4902444;28;45477;-87
2024/01/18 11:17:33;;;;;;;;;;;;;;;;;;;;;
2024/01/18 11:20:04;;;;;;;;;0.00;0.00;;;;;6.06;100.00;100151.38;4950956;28;71105;-89
2024/01/18 11:22:30;;;;;;;;;0.00;0.00;;;;;7.56;100.00;100150.53;4949418;28;46482;-85
2024/01/18 11:25:26;;;;;;;;;0.25;0.25;;;;;9.04;100.00;100155.81;4909749;28;45260;-86
2024/01/18 11:27:52;;;;;;;;;0.00;0.00;;;;;9.83;100.00;100141.91;4927730;28;45456;-87
2024/01/18 11:30:38;;;;;;;;;1.00;1.00;;;;;10.15;100.00;100149.47;4923241;28;45562;-88
2024/01/18 11:33:07;;;;;;;;;0.00;0.00;;;;;10.38;100.00;100156.44;4955596;28;47251;-89
2024/01/18 11:35:35;;;;;;;;;0.00;0.00;;;;;10.45;100.00;100142.28;4917345;28;46328;-85
2024/01/18 11:38:33;;;;;;;;;0.00;0.00;;;;;11.19;100.00;100173.25;4927597;28;45322;-86
2024/01/18 11:41:21;;;;;;;;;7.00;7.00;;;;;11.46;100.00;100176.50;4945168;28;45375;-96
2024/01/18 11:44:07;;;;;;;;;0.00;0.00;;;;;11.90;100.00;100178.16;4944668;28;47628;-88
2024/01/18 11:47:14;;;;;;;;;;;;;;;;;;;;;
2024/01/18 11:49:49;;;;;;;;;;;;;;;;;;;;;
2024/01/18 11:53:23;;;;;;;;;0.00;0.00;;;;;11.82;100.00;100207.97;4923902;28;70815;-96
2024/01/18 11:56:19;;;;;;;;;;;;;;;;;;;;;
2024/01/18 11:59:21;;;;;;;;;;;;;;;;;;;;;
2024/01/18 12:02:28;;;;;;;;;0.00;0.00;;;;;12.45;100.00;100227.06;4839534;29;70293;-94
2024/01/18 12:05:53;;;;;;;;;;;;;;;;;;;;;
2024/01/18 12:08:19;;;;;;;;;2.00;2.00;;;;;13.85;100.00;100252.66;4769072;29;74018;-95
2024/01/18 12:10:44;;;;;;;;;0.00;0.00;;;;;13.99;100.00;100251.97;4754653;29;55737;-89
2024/01/18 12:13:40;;;;;;;;;;;;;;;;;;;;;
2024/01/18 12:16:08;;;;;;;;;0.00;0.00;;;;;14.14;100.00;100276.53;4748364;29;70326;-90
2024/01/18 12:18:40;;;;;;;;;5.00;5.00;;;;;14.36;100.00;100288.50;4771062;29;46659;-91
2024/01/18 12:21:06;;;;;;;;;0.00;0.00;;;;;14.49;100.00;100273.84;4755446;29;45673;-91
2024/01/18 12:23:31;;;;;;;;;0.00;0.00;;;;;14.72;100.00;100259.56;4770551;29;45521;-90
2024/01/18 12:26:30;;;;;;;;;0.25;0.25;;;;;15.24;100.00;100271.59;4751887;29;45552;-92
2024/01/18 12:28:58;;;;;;;;;1.50;1.50;;;;;16.04;100.00;100277.53;4754180;29;47614;-92
2024/01/18 12:31:24;;;;;;;;;0.00;0.00;;;;;16.57;100.00;100294.47;4776424;29;45453;-90
2024/01/18 12:34:01;;;;;;;;;0.00;0.00;;;;;17.44;100.00;100266.28;4772956;29;45413;-90
2024/01/18 12:36:30;;;;;;;;;1.00;1.00;;;;;18.49;100.00;100269.81;4785209;29;45425;-92
2024/01/18 12:38:55;;;;;;;;;0.00;0.00;;;;;19.16;100.00;100298.50;4823421;29;45755;-90
2024/01/18 12:41:23;;;;;;;;;0.00;0.00;;;;;19.68;100.00;100276.22;4832764;29;46022;-90
2024/01/18 12:47:10;;;;;;;;;0.00;0.00;;;;;21.19;100.00;100275.22;5005589;23;46203;-88
2024/01/18 12:49:35;;;;;;;;;0.75;0.75;;;;;21.97;100.00;100309.47;4985499;28;45413;-89
2024/01/18 12:52:02;;;;;;;;;0.00;0.00;;;;;22.60;100.00;100277.63;4981712;28;63855;-89
2024/01/18 12:54:30;;;;;;;;;2.00;2.00;;;;;22.94;100.00;100319.81;4973538;28;45262;-89
2024/01/18 12:56:57;;;;;;;;;0.00;0.00;;;;;23.12;100.00;100335.94;4998817;28;45545;-89
2024/01/18 12:59:24;;;;;;;;;0.00;0.00;;;;;23.18;100.00;100327.47;4996754;28;45622;-89
2024/01/18 13:01:51;;;;;;;;;1.50;1.50;;;;;23.50;100.00;100347.66;5008164;28;45408;-90
2024/01/18 13:04:34;;;;;;;;;;;;;;;;;;;;;
2024/01/18 13:07:03;;;;;;;;;0.00;0.00;;;;;22.61;100.00;100325.25;4993745;28;71203;-91
2024/01/18 13:09:29;;;;;;;;;0.00;0.00;;;;;22.84;100.00;100342.81;4978083;28;46533;-91
2024/01/18 13:11:59;;;;;;;;;0.00;0.00;;;;;23.36;100.00;100320.50;4980333;28;45369;-91
2024/01/18 13:14:30;;;;;;;;;3.00;3.00;;;;;24.14;100.00;100323.19;4965092;28;45391;-91
2024/01/18 13:16:56;;;;;;;;;0.00;0.00;;;;;24.77;100.00;100331.59;4980614;28;45237;-89
2024/01/18 13:19:22;;;;;;;;;0.00;0.00;;;;;25.67;100.00;100328.13;4963872;28;47699;-91
2024/01/18 13:21:52;;;;;;;;;1.00;1.00;;;;;26.26;100.00;100322.28;4999134;28;45843;-92
2024/01/18 13:24:20;;;;;;;;;1.00;1.00;;;;;26.48;100.00;100320.09;4965500;28;45327;-92
2024/01/18 13:26:50;;;;;;;;;0.00;0.00;;;;;26.83;100.00;100335.97;4980757;28;45535;-92
2024/01/18 13:29:18;;;;;;;;;0.00;0.00;;;;;27.37;100.00;100325.00;4981026;28;46971;-91
2024/01/18 13:31:47;;;;;;;;;0.00;0.00;;;;;27.55;100.00;100343.59;4964826;28;45303;-91
2024/01/18 13:34:12;;;;;;;;;0.00;0.00;;;;;27.68;100.00;100344.97;4980793;28;45422;-92
2024/01/18 13:36:38;;;;;;;;;0.00;0.00;;;;;27.75;100.00;100365.53;4965135;28;45460;-91
2024/01/18 13:39:07;;;;;;;;;0.00;0.00;;;;;27.78;100.00;100346.44;4996679;28;45471;-91
2024/01/18 13:41:33;;;;;;;;;0.00;0.00;;;;;27.90;100.00;100389.81;4974678;28;45385;-91
2024/01/18 13:43:58;;;;;;;;;0.00;0.00;;;;;27.67;100.00;100373.50;4976616;28;45365;-91
2024/01/18 13:46:23;;;;;;;;;0.00;0.00;;;;;27.70;100.00;100423.16;4966373;28;45354;-91
2024/01/18 13:48:56;;;;;;;;;0.00;0.00;;;;;27.24;100.00;100405.59;4983193;28;48078;-92
2024/01/18 13:51:22;;;;;;;;;0.00;0.00;;;;;24.92;100.00;100426.81;4981461;28;45557;-91
2024/01/18 13:53:50;;;;;;;;;0.75;0.75;;;;;22.15;100.00;100432.50;4964114;28;45263;-92
2024/01/18 13:56:20;;;;;;;;;4.00;4.00;;;;;21.91;100.00;100443.31;4979932;28;45630;-91
2024/01/18 13:58:46;;;;;;;;;0.00;0.00;;;;;22.03;100.00;100436.19;4980570;28;45521;-91
2024/01/18 14:01:14;;;;;;;;;0.00;0.00;;;;;21.44;100.00;100443.53;4996928;28;45648;-90
2024/01/18 14:03:44;;;;;;;;;0.00;0.00;;;;;21.10;100.00;100455.91;4981070;28;45223;-90
2024/01/18 14:06:29;;;;;;;;;;;;;;;;;;;;;
2024/01/18 14:08:55;;;;;;;;;0.00;0.00;;;;;19.15;100.00;100453.34;4959530;28;75017;-92